McGregor, IA (52157)

7:25 PM CST on December 05, 2016 (GMT -0600)
Prairie du Chien | | Change Station

Elev 681 ft 43.04 °N, 91.14 °W | Updated 7 seconds ago

Overcast
Overcast
34.2 °F
Feels Like 34 °F
N
0.4
Wind Variable Wind from East
Gusts 4.5 mph

Today
High -- | Low -- °F
--% Chance of Precip.
Yesterday
High -- | Low -- °F
Precip. -- in
Pressure 29.85 in
Visibility 7.0 miles
Clouds Overcast 800 ft
Windchill 34 °F
Dew Point 30 °F
Humidity 84%
Rainfall in
Snow Depth Not available.
7:20 AM 4:30 PM
Waxing Crescent, 36% visible
METAR KPDC 060115Z AUTO 12007KT 7SM OVC008 01/M01 A2985 RMK AO2 T00101006
Pressure 29.85 in
Visibility 7.0 miles
Clouds Overcast 800 ft
Windchill 34 °F
Dew Point 30 °F
Humidity 84%
Rainfall in
Snow Depth Not available.
7:20 AM 4:30 PM
Waxing Crescent, 36% visible
METAR KPDC 060115Z AUTO 12007KT 7SM OVC008 01/M01 A2985 RMK AO2 T00101006

10-Day Weather Forecast

Almanac

Astronomy

Dec. 05, 2016 Rise Set
Actual Time
Civil Twilight
Nautical Twilight
Astronomical Twilight
Moon
Length of Visible Light
Length of Day
Tomorrow will be .
, % of the Moon is Illuminated

Today's Extremes

State Highs State Lows

Community

WunderPhotos

Upload Photos

1,955,893 photos uploaded!

WunderBlog® & News

Nearby

Air Quality

  Air Quality AQ Index Pollutant
Not available.

Snow Depth

Station Depth Elevation

Earthquake Activity

City Distance Mag. Time & Date
Minimum magnitude displayed is 2.5.

Coastal Water Temperatures

Place Temperature

Stations

Nearby Weather Stations

Station Location Temp. Windchill Dew Point Humidity Wind Precip. Elev Updated Type
                   

Watches & Warnings

There are currently no watches in effect.